createdAt,value
2019-02-10T00:00:45.232Z,972.57
2019-02-10T00:01:45.247Z,972.58
2019-02-10T00:02:45.211Z,972.55
2019-02-10T00:03:45.200Z,972.52
2019-02-10T00:04:45.188Z,972.49
2019-02-10T00:05:45.178Z,972.49
2019-02-10T00:06:45.169Z,972.48
2019-02-10T00:07:45.161Z,972.47
2019-02-10T00:08:45.145Z,972.47
2019-02-10T00:09:45.132Z,972.43
2019-02-10T00:10:45.150Z,972.42
2019-02-10T00:11:45.110Z,972.45
2019-02-10T00:12:45.110Z,972.45
2019-02-10T00:13:45.087Z,972.46
2019-02-10T00:14:45.077Z,972.46
2019-02-10T00:15:45.065Z,972.47
2019-02-10T00:16:45.061Z,972.48
2019-02-10T00:17:45.053Z,972.47
2019-02-10T00:18:45.032Z,972.47
2019-02-10T00:19:45.022Z,972.41
2019-02-10T00:20:45.024Z,972.39
2019-02-10T00:21:44.998Z,972.43
2019-02-10T00:22:45.002Z,972.38
2019-02-10T00:23:44.977Z,972.38
2019-02-10T00:24:44.965Z,972.33
2019-02-10T00:25:44.953Z,972.34
2019-02-10T00:26:44.951Z,972.27
2019-02-10T00:27:44.940Z,972.33
2019-02-10T00:28:44.919Z,972.35
2019-02-10T00:29:44.907Z,972.32
2019-02-10T00:30:44.898Z,972.36
2019-02-10T00:31:44.888Z,972.36
2019-02-10T00:32:44.890Z,972.33
2019-02-10T00:33:44.866Z,972.32
2019-02-10T00:34:44.854Z,972.31
2019-02-10T00:35:44.842Z,972.25
2019-02-10T00:36:44.834Z,972.26
2019-02-10T00:37:44.828Z,972.30
2019-02-10T00:38:44.808Z,972.29
2019-02-10T00:39:44.799Z,972.23
2019-02-10T00:40:44.786Z,972.25
2019-02-10T00:41:44.775Z,972.18
2019-02-10T00:42:44.764Z,972.18
2019-02-10T00:43:44.759Z,972.23
2019-02-10T00:44:44.740Z,972.19
2019-02-10T00:45:44.733Z,972.20
2019-02-10T00:46:44.745Z,972.21
2019-02-10T00:47:44.707Z,972.14
2019-02-10T00:48:44.699Z,972.13
2019-02-10T00:49:44.685Z,972.18
2019-02-10T00:50:44.680Z,972.20
2019-02-10T00:51:44.664Z,972.17
2019-02-10T00:52:44.658Z,972.14
2019-02-10T00:53:44.647Z,972.17
2019-02-10T00:54:44.655Z,972.08
2019-02-10T00:55:44.621Z,972.10
2019-02-10T00:56:44.608Z,972.06
2019-02-10T00:57:44.597Z,972.00
2019-02-10T00:58:44.597Z,971.97
2019-02-10T00:59:44.577Z,971.93
2019-02-10T01:00:44.566Z,971.89
2019-02-10T01:01:44.565Z,971.91
2019-02-10T01:02:44.544Z,971.90
2019-02-10T01:03:44.545Z,971.90
2019-02-10T01:04:44.520Z,971.96
2019-02-10T01:05:44.511Z,971.94
2019-02-10T01:06:44.498Z,971.92
2019-02-10T01:07:44.488Z,971.95
2019-02-10T01:08:44.487Z,971.95
2019-02-10T01:09:44.466Z,971.94
2019-02-10T01:10:44.454Z,972.01
2019-02-10T01:11:44.443Z,971.91
2019-02-10T01:12:44.432Z,971.98
2019-02-10T01:13:44.430Z,971.96
2019-02-10T01:14:44.408Z,971.94
2019-02-10T01:15:44.399Z,971.92
2019-02-10T01:16:44.397Z,971.91
2019-02-10T01:17:44.380Z,971.89
2019-02-10T01:18:44.387Z,971.85
2019-02-10T01:19:44.361Z,971.80
2019-02-10T01:20:44.343Z,971.78
2019-02-10T01:21:44.336Z,971.79
2019-02-10T01:22:44.321Z,971.80
2019-02-10T01:23:44.329Z,971.78
2019-02-10T01:24:44.299Z,971.79
2019-02-10T01:25:44.291Z,971.77
2019-02-10T01:26:44.278Z,971.74
2019-02-10T01:27:44.267Z,971.62
2019-02-10T01:28:44.266Z,971.62
2019-02-10T01:29:44.246Z,971.63
2019-02-10T01:30:44.234Z,971.62
2019-02-10T01:31:44.225Z,971.65
2019-02-10T01:32:44.219Z,971.70
2019-02-10T01:33:44.211Z,971.71
2019-02-10T01:34:44.188Z,971.62
2019-02-10T01:35:44.177Z,971.66
2019-02-10T01:36:49.357Z,971.69
2019-02-10T01:37:45.153Z,971.58
2019-02-10T01:38:44.155Z,971.64
2019-02-10T01:39:44.133Z,971.59
2019-02-10T01:40:44.126Z,971.58
2019-02-10T01:41:44.114Z,971.53
2019-02-10T01:42:44.104Z,971.52
2019-02-10T01:43:44.112Z,971.47
2019-02-10T01:44:44.078Z,971.46
2019-02-10T01:45:44.068Z,971.46
2019-02-10T01:46:44.057Z,971.44
2019-02-10T01:47:44.048Z,971.46
2019-02-10T01:48:44.056Z,971.40
2019-02-10T01:49:44.025Z,971.37
2019-02-10T01:50:44.016Z,971.38
2019-02-10T01:51:44.002Z,971.39
2019-02-10T01:52:43.991Z,971.36
2019-02-10T01:53:43.982Z,971.28
2019-02-10T01:54:43.970Z,971.25
2019-02-10T01:55:43.959Z,971.21
2019-02-10T01:56:43.997Z,971.23
2019-02-10T01:57:43.935Z,971.25
2019-02-10T01:58:43.924Z,971.29
2019-02-10T01:59:43.922Z,971.33
2019-02-10T02:00:43.907Z,971.29
2019-02-10T02:01:43.890Z,971.26
2019-02-10T02:02:43.879Z,971.22
2019-02-10T02:03:43.868Z,971.20
2019-02-10T02:04:43.867Z,971.24
2019-02-10T02:05:43.846Z,971.21
2019-02-10T02:06:43.836Z,971.20
2019-02-10T02:07:43.836Z,971.18
2019-02-10T02:08:43.813Z,971.09
2019-02-10T02:09:43.809Z,971.13
2019-02-10T02:10:43.790Z,971.05
2019-02-10T02:11:43.780Z,970.99
2019-02-10T02:12:43.769Z,970.94
2019-02-10T02:13:43.758Z,970.92
2019-02-10T02:14:43.751Z,970.89
2019-02-10T02:15:43.735Z,970.88
2019-02-10T02:16:43.730Z,970.83
2019-02-10T02:17:43.713Z,970.82
2019-02-10T02:18:43.701Z,970.82
2019-02-10T02:19:43.692Z,970.76
2019-02-10T02:20:43.685Z,970.81
2019-02-10T02:21:43.668Z,970.72
2019-02-10T02:22:43.656Z,970.75
2019-02-10T02:23:43.646Z,970.78
2019-02-10T02:24:43.646Z,970.80
2019-02-10T02:25:43.624Z,970.75
2019-02-10T02:26:43.614Z,970.71
2019-02-10T02:27:43.600Z,970.68
2019-02-10T02:28:43.597Z,970.65
2019-02-10T02:29:43.605Z,970.69
2019-02-10T02:30:43.569Z,970.61
2019-02-10T02:31:43.558Z,970.70
2019-02-10T02:32:43.545Z,970.61
2019-02-10T02:33:43.535Z,970.59
2019-02-10T02:34:43.555Z,970.56
2019-02-10T02:35:43.514Z,970.56
2019-02-10T02:36:43.543Z,970.48
2019-02-10T02:37:43.490Z,970.48
2019-02-10T02:38:43.480Z,970.47
2019-02-10T02:39:43.467Z,970.41
2019-02-10T02:40:43.468Z,970.35
2019-02-10T02:41:43.447Z,970.32
2019-02-10T02:42:43.440Z,970.16
2019-02-10T02:43:43.426Z,970.15
2019-02-10T02:44:43.419Z,970.11
2019-02-10T02:45:43.414Z,970.10
2019-02-10T02:46:43.392Z,970.09
2019-02-10T02:47:43.382Z,970.06
2019-02-10T02:48:43.372Z,970.04
2019-02-10T02:49:43.360Z,970.01
2019-02-10T02:50:43.504Z,970.04
2019-02-10T02:51:43.354Z,970.04
2019-02-10T02:52:43.346Z,970.02
2019-02-10T02:53:43.323Z,970.01
2019-02-10T02:54:43.313Z,970.01
2019-02-10T02:55:43.309Z,970.08
2019-02-10T02:56:43.283Z,970.15
2019-02-10T02:57:43.273Z,970.20
2019-02-10T02:58:43.268Z,970.21
2019-02-10T02:59:43.287Z,970.25
2019-02-10T03:00:43.257Z,970.17
2019-02-10T03:01:43.231Z,970.17
2019-02-10T03:02:43.219Z,970.10
2019-02-10T03:03:43.211Z,970.02
2019-02-10T03:04:43.255Z,970.01
2019-02-10T03:05:43.198Z,970.04
2019-02-10T03:06:43.173Z,969.99
2019-02-10T03:07:43.163Z,970.00
2019-02-10T03:08:43.161Z,970.02
2019-02-10T03:09:43.144Z,970.07
2019-02-10T03:10:43.143Z,970.06
2019-02-10T03:11:43.126Z,969.98
2019-02-10T03:12:43.108Z,969.94
2019-02-10T03:13:43.105Z,970.01
2019-02-10T03:14:43.086Z,969.91
2019-02-10T03:15:43.088Z,969.92
2019-02-10T03:16:43.065Z,969.93
2019-02-10T03:17:43.075Z,969.85
2019-02-10T03:18:43.044Z,969.81
2019-02-10T03:19:43.056Z,969.84
2019-02-10T03:20:43.039Z,969.89
2019-02-10T03:21:43.013Z,969.96
2019-02-10T03:22:43.009Z,969.90
2019-02-10T03:23:42.988Z,969.92
2019-02-10T03:24:42.983Z,969.91
2019-02-10T03:25:43.063Z,969.93
2019-02-10T03:26:42.957Z,969.89
2019-02-10T03:27:42.945Z,969.89
2019-02-10T03:28:42.943Z,969.90
2019-02-10T03:29:42.931Z,969.91
2019-02-10T03:30:42.928Z,969.91
2019-02-10T03:31:42.954Z,969.91
2019-02-10T03:32:42.898Z,969.90
2019-02-10T03:33:42.945Z,969.90
2019-02-10T03:34:42.878Z,969.80
2019-02-10T03:35:42.866Z,969.84
2019-02-10T03:36:42.847Z,969.78
2019-02-10T03:37:42.837Z,969.77
2019-02-10T03:38:42.822Z,969.79
2019-02-10T03:39:42.812Z,969.75
2019-02-10T03:40:42.805Z,969.78
2019-02-10T03:41:42.798Z,969.68
2019-02-10T03:42:42.779Z,969.68
2019-02-10T03:43:42.768Z,969.62
2019-02-10T03:44:42.765Z,969.54
2019-02-10T03:45:42.767Z,969.52
2019-02-10T03:46:42.739Z,969.46
2019-02-10T03:47:42.722Z,969.41
2019-02-10T03:48:42.717Z,969.48
2019-02-10T03:49:42.701Z,969.45
2019-02-10T03:50:42.690Z,969.45
2019-02-10T03:51:42.697Z,969.43
2019-02-10T03:52:42.673Z,969.41
2019-02-10T03:53:42.662Z,969.46
2019-02-10T03:54:42.652Z,969.38
2019-02-10T03:55:42.645Z,969.35
2019-02-10T03:56:42.643Z,969.43
2019-02-10T03:57:42.619Z,969.40
2019-02-10T03:58:42.601Z,969.41
2019-02-10T03:59:42.590Z,969.41
2019-02-10T04:00:42.584Z,969.44
2019-02-10T04:01:42.576Z,969.37
2019-02-10T04:02:42.562Z,969.44
2019-02-10T04:03:42.543Z,969.44
2019-02-10T04:04:42.537Z,969.42
2019-02-10T04:05:42.556Z,969.41
2019-02-10T04:06:42.521Z,969.38
2019-02-10T04:07:42.505Z,969.34
2019-02-10T04:08:42.499Z,969.31
2019-02-10T04:09:42.479Z,969.33
2019-02-10T04:10:42.469Z,969.33
2019-02-10T04:11:42.466Z,969.35
2019-02-10T04:12:42.450Z,969.32
2019-02-10T04:13:42.444Z,969.25
2019-02-10T04:14:42.422Z,969.24
2019-02-10T04:15:42.413Z,969.29
2019-02-10T04:16:42.410Z,969.24
2019-02-10T04:17:42.388Z,969.23
2019-02-10T04:18:42.377Z,969.26
2019-02-10T04:19:42.367Z,969.14
2019-02-10T04:20:42.355Z,969.10
2019-02-10T04:21:42.356Z,969.08
2019-02-10T04:22:42.344Z,969.08
2019-02-10T04:23:42.324Z,969.04
2019-02-10T04:24:42.321Z,969.05
2019-02-10T04:25:42.306Z,969.05
2019-02-10T04:26:42.300Z,969.04
2019-02-10T04:27:42.284Z,969.02
2019-02-10T04:28:42.273Z,968.98
2019-02-10T04:29:42.264Z,968.88
2019-02-10T04:30:42.250Z,968.92
2019-02-10T04:31:42.264Z,968.88
2019-02-10T04:32:42.222Z,969.00
2019-02-10T04:33:42.210Z,968.94
2019-02-10T04:34:42.202Z,968.97
2019-02-10T04:35:42.189Z,968.96
2019-02-10T04:36:42.192Z,968.99
2019-02-10T04:37:46.005Z,968.97
2019-02-10T04:38:42.163Z,969.02
2019-02-10T04:39:42.149Z,969.02
2019-02-10T04:40:42.138Z,969.09
2019-02-10T04:41:42.131Z,968.95
2019-02-10T04:42:42.119Z,968.93
2019-02-10T04:43:42.099Z,968.98
2019-02-10T04:44:42.087Z,968.96
2019-02-10T04:45:42.079Z,968.94
2019-02-10T04:46:42.074Z,968.96
2019-02-10T04:47:42.060Z,968.98
2019-02-10T04:48:42.049Z,968.94
2019-02-10T04:49:42.032Z,969.03
2019-02-10T04:50:42.037Z,968.97
2019-02-10T04:51:42.019Z,968.85
2019-02-10T04:52:42.001Z,968.80
2019-02-10T04:53:41.987Z,968.87
2019-02-10T04:54:41.977Z,968.74
2019-02-10T04:55:41.968Z,968.72
2019-02-10T04:56:41.969Z,968.75
2019-02-10T04:57:41.942Z,968.74
2019-02-10T04:58:41.934Z,968.73
2019-02-10T04:59:41.923Z,968.70
2019-02-10T05:00:41.910Z,968.66
2019-02-10T05:01:41.924Z,968.65
2019-02-10T05:02:41.889Z,968.61
2019-02-10T05:03:41.877Z,968.71
2019-02-10T05:04:41.867Z,968.52
2019-02-10T05:05:41.856Z,968.51
2019-02-10T05:06:41.852Z,968.47
2019-02-10T05:07:41.858Z,968.51
2019-02-10T05:08:41.821Z,968.49
2019-02-10T05:09:41.811Z,968.48
2019-02-10T05:10:41.804Z,968.38
2019-02-10T05:11:41.789Z,968.35
2019-02-10T05:12:41.790Z,968.30
2019-02-10T05:13:41.775Z,968.32
2019-02-10T05:14:41.755Z,968.39
2019-02-10T05:15:41.749Z,968.36
2019-02-10T05:16:41.739Z,968.27
2019-02-10T05:17:41.727Z,968.22
2019-02-10T05:18:41.715Z,968.23
2019-02-10T05:19:41.699Z,968.24
2019-02-10T05:20:41.694Z,968.17
2019-02-10T05:21:41.691Z,968.15
2019-02-10T05:22:41.668Z,968.10
2019-02-10T05:23:41.663Z,967.95
2019-02-10T05:24:41.666Z,967.93
2019-02-10T05:25:41.633Z,967.88
2019-02-10T05:26:41.666Z,967.96
2019-02-10T05:27:41.624Z,968.01
2019-02-10T05:28:41.599Z,967.92
2019-02-10T05:29:41.597Z,967.83
2019-02-10T05:30:41.575Z,967.77
2019-02-10T05:31:41.564Z,967.72
2019-02-10T05:32:41.557Z,967.77
2019-02-10T05:33:41.543Z,967.74
2019-02-10T05:34:41.537Z,967.77
2019-02-10T05:35:41.523Z,967.81
2019-02-10T05:36:41.515Z,967.87
2019-02-10T05:37:41.502Z,967.85
2019-02-10T05:38:41.485Z,967.81
2019-02-10T05:39:41.474Z,967.88
2019-02-10T05:40:41.463Z,967.85
2019-02-10T05:41:41.461Z,967.82
2019-02-10T05:42:41.444Z,967.78
2019-02-10T05:43:41.444Z,967.82
2019-02-10T05:44:41.419Z,967.92
2019-02-10T05:45:41.413Z,967.84
2019-02-10T05:46:41.401Z,967.92
2019-02-10T05:47:41.386Z,967.86
2019-02-10T05:48:41.380Z,967.83
2019-02-10T05:49:41.362Z,967.77
2019-02-10T05:50:41.360Z,967.76
2019-02-10T05:51:41.349Z,967.69
2019-02-10T05:52:41.347Z,967.64
2019-02-10T05:53:41.317Z,967.57
2019-02-10T05:54:41.308Z,967.67
2019-02-10T05:55:41.302Z,967.64
2019-02-10T05:56:41.293Z,967.64
2019-02-10T05:57:41.295Z,967.60
2019-02-10T05:58:41.263Z,967.57
2019-02-10T05:59:41.253Z,967.54
2019-02-10T06:00:41.246Z,967.43
2019-02-10T06:01:41.231Z,967.46
2019-02-10T06:02:41.221Z,967.41
2019-02-10T06:03:41.207Z,967.32
2019-02-10T06:04:41.218Z,967.23
2019-02-10T06:05:41.192Z,967.22
2019-02-10T06:06:41.176Z,967.16
2019-02-10T06:07:41.207Z,967.18
2019-02-10T06:08:41.151Z,967.22
2019-02-10T06:09:41.144Z,967.28
2019-02-10T06:10:41.132Z,967.27
2019-02-10T06:11:41.122Z,967.23
2019-02-10T06:12:41.109Z,967.19
2019-02-10T06:13:41.097Z,967.12
2019-02-10T06:14:41.103Z,967.14
2019-02-10T06:15:41.075Z,967.00
2019-02-10T06:16:41.064Z,966.92
2019-02-10T06:17:41.062Z,966.80
2019-02-10T06:18:41.042Z,966.87
2019-02-10T06:19:41.045Z,966.83
2019-02-10T06:20:41.024Z,966.77
2019-02-10T06:21:41.013Z,966.83
2019-02-10T06:22:41.007Z,966.93
2019-02-10T06:23:40.986Z,967.03
2019-02-10T06:24:40.989Z,967.05
2019-02-10T06:25:40.963Z,966.99
2019-02-10T06:26:40.958Z,967.02
2019-02-10T06:27:40.941Z,966.92
2019-02-10T06:28:41.035Z,966.84
2019-02-10T06:29:40.929Z,966.77
2019-02-10T06:30:40.908Z,966.79
2019-02-10T06:31:40.897Z,966.84
2019-02-10T06:32:40.885Z,966.81
2019-02-10T06:33:40.917Z,966.75
2019-02-10T06:34:40.872Z,966.72
2019-02-10T06:35:40.855Z,966.79
2019-02-10T06:36:40.848Z,966.78
2019-02-10T06:37:40.842Z,966.86
2019-02-10T06:38:40.832Z,966.83
2019-02-10T06:39:40.811Z,966.83
2019-02-10T06:40:40.801Z,966.93
2019-02-10T06:41:40.802Z,967.00
2019-02-10T06:42:40.780Z,967.06
2019-02-10T06:43:40.861Z,967.08
2019-02-10T06:44:40.763Z,967.11
2019-02-10T06:45:40.750Z,967.10
2019-02-10T06:46:40.731Z,967.16
2019-02-10T06:47:40.724Z,967.28
2019-02-10T06:48:40.726Z,967.31
2019-02-10T06:49:40.730Z,967.31
2019-02-10T06:50:40.694Z,967.34
2019-02-10T06:51:40.681Z,967.28
2019-02-10T06:52:40.664Z,967.28
2019-02-10T06:53:40.667Z,967.22
2019-02-10T06:54:40.652Z,967.17
2019-02-10T06:55:40.637Z,967.11
2019-02-10T06:56:40.682Z,967.08
2019-02-10T06:57:40.612Z,967.10
2019-02-10T06:58:40.614Z,967.07
2019-02-10T06:59:40.590Z,967.08
2019-02-10T07:00:40.575Z,967.09
2019-02-10T07:01:40.573Z,967.12
2019-02-10T07:02:40.553Z,967.02
2019-02-10T07:03:40.569Z,967.12
2019-02-10T07:04:40.530Z,967.01
2019-02-10T07:05:40.546Z,966.77
2019-02-10T07:06:40.516Z,966.70
2019-02-10T07:07:40.497Z,966.75
2019-02-10T07:08:40.968Z,966.60
2019-02-10T07:09:40.476Z,966.61
2019-02-10T07:10:40.463Z,966.58
2019-02-10T07:11:40.835Z,966.50
2019-02-10T07:12:40.447Z,966.45
2019-02-10T07:13:40.435Z,966.21
2019-02-10T07:14:40.421Z,966.23
2019-02-10T07:15:40.409Z,966.27
2019-02-10T07:16:40.402Z,966.27
2019-02-10T07:17:40.385Z,966.23
2019-02-10T07:18:40.384Z,966.29
2019-02-10T07:19:40.363Z,966.33
2019-02-10T07:20:40.350Z,966.29
2019-02-10T07:21:40.341Z,966.23
2019-02-10T07:22:40.366Z,966.24
2019-02-10T07:23:40.328Z,966.16
2019-02-10T07:24:40.307Z,966.06
2019-02-10T07:25:40.304Z,966.04
2019-02-10T07:26:40.291Z,966.07
2019-02-10T07:27:40.280Z,966.08
2019-02-10T07:28:40.290Z,966.04
2019-02-10T07:29:40.253Z,965.95
2019-02-10T07:30:40.239Z,965.92
2019-02-10T07:31:40.234Z,965.91
2019-02-10T07:32:40.217Z,965.90
2019-02-10T07:33:40.209Z,965.82
2019-02-10T07:34:47.749Z,965.86
2019-02-10T07:35:41.183Z,965.81
2019-02-10T07:36:40.176Z,965.80
2019-02-10T07:37:40.163Z,965.80
2019-02-10T07:38:40.162Z,965.79
2019-02-10T07:39:40.157Z,965.74
2019-02-10T07:40:40.127Z,965.74
2019-02-10T07:41:40.117Z,965.68
2019-02-10T07:42:40.109Z,965.65
2019-02-10T07:43:40.123Z,965.68
2019-02-10T07:44:40.127Z,965.65
2019-02-10T07:45:40.078Z,965.62
2019-02-10T07:46:40.061Z,965.65
2019-02-10T07:47:40.051Z,965.59
2019-02-10T07:48:40.040Z,965.70
2019-02-10T07:49:40.045Z,965.70
2019-02-10T07:50:40.021Z,965.73
2019-02-10T07:51:40.008Z,965.72
2019-02-10T07:52:39.998Z,965.74
2019-02-10T07:53:39.999Z,965.80
2019-02-10T07:54:42.351Z,965.84
2019-02-10T07:55:39.967Z,965.84
2019-02-10T07:56:39.966Z,965.87
2019-02-10T07:57:39.939Z,965.88
2019-02-10T07:58:39.986Z,965.79
2019-02-10T07:59:39.933Z,965.80
2019-02-10T08:00:39.905Z,965.80
2019-02-10T08:01:39.897Z,965.78
2019-02-10T08:02:39.889Z,965.62
2019-02-10T08:03:39.879Z,965.74
2019-02-10T08:04:39.881Z,965.61
2019-02-10T08:05:39.850Z,965.57
2019-02-10T08:06:39.841Z,965.46
2019-02-10T08:07:39.828Z,965.44
2019-02-10T08:08:46.427Z,965.41
2019-02-10T08:09:40.845Z,965.42
2019-02-10T08:10:39.802Z,965.47
2019-02-10T08:11:39.784Z,965.45
2019-02-10T08:12:39.827Z,965.44
2019-02-10T08:13:39.763Z,965.49
2019-02-10T08:14:39.750Z,965.61
2019-02-10T08:15:39.756Z,965.60
2019-02-10T08:16:39.742Z,965.64
2019-02-10T08:17:39.720Z,965.62
2019-02-10T08:18:39.707Z,965.51
2019-02-10T08:19:39.703Z,965.40
2019-02-10T08:20:40.544Z,965.43
2019-02-10T08:21:39.679Z,965.49
2019-02-10T08:22:39.664Z,965.51
2019-02-10T08:23:39.652Z,965.42
2019-02-10T08:24:39.643Z,965.46
2019-02-10T08:25:39.660Z,965.50
2019-02-10T08:26:39.621Z,965.54
2019-02-10T08:27:39.610Z,965.51
2019-02-10T08:28:39.599Z,965.52
2019-02-10T08:29:39.593Z,965.49
2019-02-10T08:30:39.587Z,965.49
2019-02-10T08:31:39.566Z,965.59
2019-02-10T08:32:39.556Z,965.48
2019-02-10T08:33:39.544Z,965.58
2019-02-10T08:34:39.533Z,965.65
2019-02-10T08:35:39.532Z,965.61
2019-02-10T08:36:39.566Z,965.64
2019-02-10T08:37:39.502Z,965.57
2019-02-10T08:38:39.491Z,965.60
2019-02-10T08:39:39.483Z,965.59
2019-02-10T08:40:39.591Z,965.68
2019-02-10T08:41:39.458Z,965.68
2019-02-10T08:42:39.448Z,965.66
2019-02-10T08:43:39.445Z,965.65
2019-02-10T08:44:39.427Z,965.66
2019-02-10T08:45:39.438Z,965.60
2019-02-10T08:46:39.405Z,965.58
2019-02-10T08:47:39.395Z,965.48
2019-02-10T08:48:39.392Z,965.43
2019-02-10T08:49:39.374Z,965.38
2019-02-10T08:50:39.381Z,965.34
2019-02-10T08:51:39.351Z,965.27
2019-02-10T08:52:39.340Z,965.12
2019-02-10T08:53:39.329Z,965.15
2019-02-10T08:54:39.321Z,965.16
2019-02-10T08:55:39.317Z,965.13
2019-02-10T08:56:39.297Z,965.09
2019-02-10T08:57:39.292Z,965.05
2019-02-10T08:58:39.275Z,965.00
2019-02-10T08:59:39.267Z,964.92
2019-02-10T09:00:39.264Z,964.94
2019-02-10T09:01:39.243Z,964.94
2019-02-10T09:02:39.238Z,964.92
2019-02-10T09:03:39.231Z,964.88
2019-02-10T09:04:39.218Z,964.84
2019-02-10T09:05:39.243Z,964.76
2019-02-10T09:06:39.192Z,964.76
2019-02-10T09:07:39.181Z,964.62
2019-02-10T09:08:39.174Z,964.60
2019-02-10T09:09:39.155Z,964.58
2019-02-10T09:10:39.150Z,964.64
2019-02-10T09:11:39.153Z,964.69
2019-02-10T09:12:39.128Z,964.70
2019-02-10T09:13:39.138Z,964.68
2019-02-10T09:14:39.101Z,964.68
2019-02-10T09:15:39.287Z,964.75
2019-02-10T09:16:39.092Z,964.82
2019-02-10T09:17:39.070Z,964.79
2019-02-10T09:18:39.058Z,964.85
2019-02-10T09:19:39.062Z,964.95
2019-02-10T09:20:39.040Z,965.06
2019-02-10T09:21:39.046Z,965.06
2019-02-10T09:22:39.020Z,964.98
2019-02-10T09:23:39.010Z,964.97
2019-02-10T09:24:39.347Z,964.96
2019-02-10T09:25:38.989Z,964.77
2019-02-10T09:26:38.994Z,964.85
2019-02-10T09:27:38.968Z,964.85
2019-02-10T09:28:38.953Z,964.82
2019-02-10T09:29:38.938Z,964.78
2019-02-10T09:30:38.930Z,964.75
2019-02-10T09:31:38.928Z,964.71
2019-02-10T09:32:38.908Z,964.70
2019-02-10T09:33:38.895Z,964.70
2019-02-10T09:34:38.887Z,964.65
2019-02-10T09:35:38.908Z,964.58
2019-02-10T09:36:38.871Z,964.61
2019-02-10T09:37:38.851Z,964.67
2019-02-10T09:38:38.843Z,964.67
2019-02-10T09:39:38.832Z,964.74
2019-02-10T09:40:38.817Z,964.77
2019-02-10T09:41:38.897Z,964.76
2019-02-10T09:42:38.805Z,964.67
2019-02-10T09:43:38.874Z,964.71
2019-02-10T09:44:38.783Z,964.73
2019-02-10T09:45:38.777Z,964.77
2019-02-10T09:46:38.750Z,964.78
2019-02-10T09:47:38.740Z,964.71
2019-02-10T09:48:38.727Z,964.66
2019-02-10T09:49:38.716Z,964.57
2019-02-10T09:50:38.703Z,964.55
2019-02-10T09:51:38.694Z,964.62
2019-02-10T09:52:38.707Z,964.62
2019-02-10T09:53:38.671Z,964.69
2019-02-10T09:54:38.662Z,964.67
2019-02-10T09:55:38.706Z,964.72
2019-02-10T09:56:38.644Z,964.69
2019-02-10T09:57:38.636Z,964.71
2019-02-10T09:58:38.617Z,964.65
2019-02-10T09:59:38.604Z,964.56
2019-02-10T10:00:38.592Z,964.54
2019-02-10T10:01:38.582Z,964.59
2019-02-10T10:02:38.582Z,964.48
2019-02-10T10:03:38.562Z,964.46
2019-02-10T10:04:38.556Z,964.45
2019-02-10T10:05:38.541Z,964.50
2019-02-10T10:06:38.526Z,964.51
2019-02-10T10:07:38.524Z,964.53
2019-02-10T10:08:38.504Z,964.39
2019-02-10T10:09:38.497Z,964.30
2019-02-10T10:10:38.493Z,964.32
2019-02-10T10:11:38.475Z,964.33
2019-02-10T10:12:38.470Z,964.25
2019-02-10T10:13:38.452Z,964.25
2019-02-10T10:14:38.485Z,964.21
2019-02-10T10:15:38.428Z,964.15
2019-02-10T10:16:38.419Z,964.21
2019-02-10T10:17:38.419Z,964.15
2019-02-10T10:18:38.399Z,964.21
2019-02-10T10:19:38.384Z,964.26
2019-02-10T10:20:38.382Z,964.20
2019-02-10T10:21:38.376Z,964.06
2019-02-10T10:22:38.370Z,963.97
2019-02-10T10:23:38.343Z,963.96
2019-02-10T10:24:38.328Z,964.01
2019-02-10T10:25:38.319Z,963.95
2019-02-10T10:26:38.311Z,963.79
2019-02-10T10:27:38.302Z,963.74
2019-02-10T10:28:38.302Z,963.91
2019-02-10T10:29:38.272Z,964.07
2019-02-10T10:30:38.267Z,964.06
2019-02-10T10:31:38.256Z,964.04
2019-02-10T10:32:38.248Z,963.91
2019-02-10T10:33:38.233Z,963.85
2019-02-10T10:34:38.216Z,963.45
2019-02-10T10:35:38.221Z,963.35
2019-02-10T10:36:38.199Z,963.33
2019-02-10T10:37:38.190Z,963.31
2019-02-10T10:38:38.171Z,963.21
2019-02-10T10:39:38.160Z,963.17
2019-02-10T10:40:38.151Z,963.09
2019-02-10T10:41:38.147Z,963.02
2019-02-10T10:42:38.138Z,962.99
2019-02-10T10:43:38.118Z,962.92
2019-02-10T10:44:38.115Z,962.84
2019-02-10T10:45:38.096Z,962.79
2019-02-10T10:46:38.081Z,962.83
2019-02-10T10:47:38.092Z,962.74
2019-02-10T10:48:38.059Z,962.75
2019-02-10T10:49:38.054Z,962.64
2019-02-10T10:50:38.037Z,962.69
2019-02-10T10:51:39.314Z,962.60
2019-02-10T10:52:38.021Z,962.58
2019-02-10T10:53:38.013Z,962.55
2019-02-10T10:54:42.805Z,962.47
2019-02-10T10:55:38.981Z,962.41
2019-02-10T10:56:37.969Z,962.37
2019-02-10T10:57:37.958Z,962.26
2019-02-10T10:58:37.950Z,962.22
2019-02-10T10:59:37.936Z,962.15
2019-02-10T11:00:37.924Z,962.10
2019-02-10T11:01:37.915Z,962.09
2019-02-10T11:02:37.909Z,962.05
2019-02-10T11:03:37.894Z,962.02
2019-02-10T11:04:37.886Z,962.05
2019-02-10T11:05:37.873Z,962.20
2019-02-10T11:06:37.858Z,962.08
2019-02-10T11:07:37.852Z,962.08
2019-02-10T11:08:37.843Z,962.00
2019-02-10T11:09:37.824Z,961.98
2019-02-10T11:10:37.816Z,961.89
2019-02-10T11:11:37.818Z,961.86
2019-02-10T11:12:37.791Z,961.86
2019-02-10T11:13:37.784Z,961.81
2019-02-10T11:14:37.768Z,961.76
2019-02-10T11:15:37.765Z,961.67
2019-02-10T11:16:37.748Z,961.79
2019-02-10T11:17:37.738Z,961.70
2019-02-10T11:18:37.737Z,961.65
2019-02-10T11:19:37.717Z,961.52
2019-02-10T11:20:37.713Z,961.52
2019-02-10T11:21:37.692Z,961.45
2019-02-10T11:22:37.705Z,961.39
2019-02-10T11:23:37.683Z,961.33
2019-02-10T11:24:37.669Z,961.29
2019-02-10T11:25:37.655Z,961.21
2019-02-10T11:26:37.644Z,961.13
2019-02-10T11:27:37.633Z,961.09
2019-02-10T11:28:37.656Z,961.05
2019-02-10T11:29:37.613Z,960.93
2019-02-10T11:30:37.594Z,961.08
2019-02-10T11:31:37.588Z,960.95
2019-02-10T11:32:37.581Z,960.98
2019-02-10T11:33:37.585Z,960.90
2019-02-10T11:34:37.591Z,960.83
2019-02-10T11:35:37.541Z,960.93
2019-02-10T11:36:37.533Z,960.87
2019-02-10T11:37:37.519Z,960.91
2019-02-10T11:38:37.523Z,960.86
2019-02-10T11:39:43.649Z,960.83
2019-02-10T11:40:38.492Z,960.79
2019-02-10T11:41:37.481Z,960.72
2019-02-10T11:42:37.471Z,960.72
2019-02-10T11:43:37.506Z,960.70
2019-02-10T11:44:37.450Z,960.66
2019-02-10T11:45:37.433Z,960.61
2019-02-10T11:46:37.425Z,960.57
2019-02-10T11:47:37.414Z,960.59
2019-02-10T11:48:37.429Z,960.63
2019-02-10T11:49:37.410Z,960.51
2019-02-10T11:50:37.379Z,960.51
2019-02-10T11:51:37.375Z,960.51
2019-02-10T11:52:37.358Z,960.54
2019-02-10T11:53:37.355Z,960.56
2019-02-10T11:54:37.348Z,960.49
2019-02-10T11:55:37.334Z,960.46
2019-02-10T11:56:37.320Z,960.46
2019-02-10T11:57:37.308Z,960.53
2019-02-10T11:58:37.299Z,960.47
2019-02-10T11:59:37.297Z,960.50
2019-02-10T12:00:37.306Z,960.42
2019-02-10T12:01:37.270Z,960.35
2019-02-10T12:02:38.242Z,960.30
2019-02-10T12:03:37.246Z,960.23
2019-02-10T12:04:37.237Z,960.27
2019-02-10T12:05:37.219Z,960.25
2019-02-10T12:06:37.207Z,960.26
2019-02-10T12:07:37.199Z,960.19
2019-02-10T12:08:37.199Z,960.22
2019-02-10T12:09:37.186Z,960.11
2019-02-10T12:10:37.166Z,960.13
2019-02-10T12:11:37.161Z,960.10
2019-02-10T12:12:37.147Z,960.08
2019-02-10T12:13:39.154Z,960.05
2019-02-10T12:14:37.136Z,960.06
2019-02-10T12:15:37.113Z,960.00
2019-02-10T12:16:37.102Z,959.94
2019-02-10T12:17:37.095Z,960.04
2019-02-10T12:18:37.092Z,960.03
2019-02-10T12:19:37.087Z,960.11
2019-02-10T12:20:37.060Z,960.11
2019-02-10T12:21:37.049Z,960.03
2019-02-10T12:22:37.046Z,959.83
2019-02-10T12:23:37.025Z,959.74
2019-02-10T12:24:37.024Z,959.68
2019-02-10T12:25:37.005Z,959.65
2019-02-10T12:26:36.998Z,959.67
2019-02-10T12:27:36.988Z,959.72
2019-02-10T12:28:36.978Z,959.77